createdAt,value
2018-03-25T00:00:47.527Z,67.70
2018-03-25T00:05:50.070Z,68.00
2018-03-25T00:10:52.620Z,67.50
2018-03-25T00:15:55.175Z,68.20
2018-03-25T00:20:57.708Z,68.10
2018-03-25T00:26:00.356Z,68.40
2018-03-25T00:31:02.897Z,68.00
2018-03-25T00:36:06.219Z,68.60
2018-03-25T00:41:08.787Z,68.60
2018-03-25T00:46:11.325Z,68.40
2018-03-25T00:51:13.850Z,68.90
2018-03-25T00:56:16.398Z,68.30
2018-03-25T01:01:18.943Z,68.40
2018-03-25T01:06:21.481Z,68.80
2018-03-25T01:11:24.035Z,69.40
2018-03-25T01:16:26.579Z,69.00
2018-03-25T01:21:29.132Z,69.00
2018-03-25T01:26:31.683Z,69.30
2018-03-25T01:31:34.232Z,69.40
2018-03-25T01:36:36.774Z,69.40
2018-03-25T01:41:39.306Z,69.00
2018-03-25T01:46:41.859Z,69.70
2018-03-25T01:51:44.413Z,69.80
2018-03-25T01:56:46.956Z,69.60
2018-03-25T02:01:49.498Z,69.90
2018-03-25T02:06:52.078Z,69.80
2018-03-25T02:11:54.675Z,69.60
2018-03-25T02:16:57.220Z,69.60
2018-03-25T02:21:59.743Z,70.00
2018-03-25T02:27:02.312Z,69.70
2018-03-25T02:32:04.886Z,70.30
2018-03-25T02:37:07.426Z,69.80
2018-03-25T02:42:09.994Z,70.00
2018-03-25T02:47:12.571Z,70.40
2018-03-25T02:52:15.725Z,69.80
2018-03-25T02:57:18.271Z,70.40
2018-03-25T03:02:20.816Z,70.30
2018-03-25T03:07:23.376Z,70.20
2018-03-25T03:12:25.920Z,70.60
2018-03-25T03:17:28.472Z,70.30
2018-03-25T03:22:31.014Z,70.50
2018-03-25T03:27:33.560Z,70.40
2018-03-25T03:32:36.102Z,70.40
2018-03-25T03:37:38.666Z,71.50
2018-03-25T03:42:41.221Z,70.60
2018-03-25T03:47:43.770Z,71.00
2018-03-25T03:52:46.318Z,70.70
2018-03-25T03:57:48.949Z,71.10
2018-03-25T04:02:51.491Z,70.70
2018-03-25T04:07:54.825Z,71.40
2018-03-25T04:12:57.374Z,71.40
2018-03-25T04:17:59.943Z,71.40
2018-03-25T04:23:02.490Z,71.30
2018-03-25T04:28:05.083Z,71.80
2018-03-25T04:33:07.631Z,71.50
2018-03-25T04:38:10.202Z,71.50
2018-03-25T04:43:12.751Z,71.40
2018-03-25T04:48:15.308Z,71.70
2018-03-25T04:53:17.854Z,71.90
2018-03-25T04:58:20.410Z,71.60
2018-03-25T05:03:22.941Z,71.70
2018-03-25T05:08:25.518Z,71.80
2018-03-25T05:13:28.071Z,71.50
2018-03-25T05:18:30.617Z,71.80
2018-03-25T05:23:33.165Z,71.90
2018-03-25T05:28:35.704Z,71.80
2018-03-25T05:33:38.269Z,71.70
2018-03-25T05:38:41.587Z,72.10
2018-03-25T05:43:44.148Z,72.00
2018-03-25T05:48:46.712Z,72.30
2018-03-25T05:53:49.252Z,72.30
2018-03-25T05:58:51.815Z,72.00
2018-03-25T06:03:54.380Z,72.50
2018-03-25T06:08:56.948Z,72.70
2018-03-25T06:13:59.504Z,72.80
2018-03-25T06:19:02.047Z,73.10
2018-03-25T06:24:04.606Z,73.20
2018-03-25T06:29:07.163Z,73.30
2018-03-25T06:34:10.482Z,73.10
2018-03-25T06:39:13.127Z,73.10
2018-03-25T06:44:15.687Z,73.10
2018-03-25T06:49:18.235Z,73.70
2018-03-25T06:54:20.791Z,73.40
2018-03-25T06:59:23.350Z,73.70
2018-03-25T07:04:26.004Z,74.20
2018-03-25T07:09:28.560Z,74.30
2018-03-25T07:14:31.118Z,73.90
2018-03-25T07:19:33.650Z,73.60
2018-03-25T07:24:36.210Z,72.40
2018-03-25T07:29:38.898Z,72.40
2018-03-25T07:34:41.467Z,72.00
2018-03-25T07:39:44.023Z,71.50
2018-03-25T07:44:46.583Z,70.40
2018-03-25T07:49:49.151Z,70.50
2018-03-25T07:54:51.711Z,69.30
2018-03-25T07:59:54.507Z,68.80
2018-03-25T08:04:57.043Z,68.60
2018-03-25T08:09:59.606Z,67.60
2018-03-25T08:15:02.168Z,66.70
2018-03-25T08:20:04.727Z,66.40
2018-03-25T08:25:07.291Z,65.60
2018-03-25T08:30:09.843Z,64.80
2018-03-25T08:35:12.424Z,63.60
2018-03-25T08:40:15.011Z,63.30
2018-03-25T08:45:19.139Z,62.30
2018-03-25T08:50:22.479Z,61.90
2018-03-25T08:55:25.033Z,62.00
2018-03-25T09:00:27.593Z,61.70
2018-03-25T09:05:30.147Z,60.80
2018-03-25T09:10:32.698Z,60.10
2018-03-25T09:15:35.257Z,58.70
2018-03-25T09:20:37.851Z,58.10
2018-03-25T09:25:40.422Z,57.80
2018-03-25T09:30:43.011Z,58.30
2018-03-25T09:35:45.567Z,58.30
2018-03-25T09:40:48.134Z,58.20
2018-03-25T09:45:50.736Z,57.70
2018-03-25T09:50:53.233Z,55.70
2018-03-25T09:55:55.792Z,55.50
2018-03-25T10:01:04.106Z,57.10
2018-03-25T10:06:06.646Z,56.80
2018-03-25T10:11:09.466Z,57.50
2018-03-25T10:16:12.029Z,57.80
2018-03-25T10:21:14.584Z,57.90
2018-03-25T10:26:17.136Z,57.70
2018-03-25T10:31:19.687Z,57.60
2018-03-25T10:36:22.250Z,57.20
2018-03-25T10:41:25.283Z,56.80
2018-03-25T10:46:27.851Z,56.20
2018-03-25T10:51:31.165Z,57.10
2018-03-25T10:56:34.496Z,55.20
2018-03-25T11:01:37.032Z,55.10
2018-03-25T11:06:39.592Z,53.40
2018-03-25T11:11:42.162Z,54.90
2018-03-25T11:16:44.690Z,56.70
2018-03-25T11:21:47.271Z,54.90
2018-03-25T11:26:49.843Z,53.70
2018-03-25T11:31:52.388Z,55.30
2018-03-25T11:36:54.950Z,54.80
2018-03-25T11:41:57.522Z,55.70
2018-03-25T11:47:00.067Z,54.50
2018-03-25T11:52:03.382Z,55.20
2018-03-25T11:57:05.944Z,55.70
2018-03-25T12:02:09.452Z,52.40
2018-03-25T12:07:11.995Z,51.70
2018-03-25T12:12:14.538Z,55.00
2018-03-25T12:17:17.105Z,51.80
2018-03-25T12:22:20.413Z,51.10
2018-03-25T12:27:22.957Z,51.00
2018-03-25T12:32:25.517Z,53.30
2018-03-25T12:37:28.834Z,50.50
2018-03-25T12:42:31.406Z,50.50
2018-03-25T12:47:33.954Z,51.90
2018-03-25T12:52:36.526Z,53.20
2018-03-25T12:57:39.888Z,51.00
2018-03-25T13:02:42.453Z,50.90
2018-03-25T13:07:45.051Z,51.00
2018-03-25T13:12:47.615Z,48.50
2018-03-25T13:17:50.163Z,49.20
2018-03-25T13:22:52.706Z,50.50
2018-03-25T13:27:55.270Z,50.00
2018-03-25T13:32:57.818Z,49.40
2018-03-25T13:38:00.354Z,47.60
2018-03-25T13:43:02.907Z,49.00
2018-03-25T13:48:05.465Z,48.00
2018-03-25T13:53:08.028Z,50.20
2018-03-25T13:58:10.578Z,49.20
2018-03-25T14:03:13.144Z,48.40
2018-03-25T14:08:15.694Z,47.10
2018-03-25T14:13:18.259Z,47.50
2018-03-25T14:18:20.808Z,45.30
2018-03-25T14:23:23.370Z,45.50
2018-03-25T14:28:25.938Z,47.10
2018-03-25T14:33:28.474Z,47.90
2018-03-25T14:38:31.024Z,46.90
2018-03-25T14:43:33.578Z,45.60
2018-03-25T14:48:36.121Z,46.90
2018-03-25T14:53:39.434Z,46.70
2018-03-25T14:58:41.981Z,46.60
2018-03-25T15:03:44.591Z,46.40
2018-03-25T15:08:47.133Z,44.10
2018-03-25T15:13:49.670Z,44.90
2018-03-25T15:18:52.215Z,45.00
2018-03-25T15:23:57.032Z,45.20
2018-03-25T15:28:59.563Z,45.20
2018-03-25T15:34:02.133Z,45.40
2018-03-25T15:39:04.674Z,45.20
2018-03-25T15:44:08.017Z,45.20
2018-03-25T15:49:10.581Z,45.20
2018-03-25T15:54:13.910Z,46.30
2018-03-25T15:59:16.488Z,46.30
2018-03-25T16:04:19.106Z,49.00
2018-03-25T16:09:22.422Z,48.90
2018-03-25T16:14:24.983Z,48.90
2018-03-25T16:19:27.550Z,46.90
2018-03-25T16:24:30.137Z,47.80
2018-03-25T16:29:32.728Z,48.50
2018-03-25T16:34:35.242Z,49.40
2018-03-25T16:39:37.798Z,50.00
2018-03-25T16:44:40.374Z,50.00
2018-03-25T16:49:42.942Z,49.10
2018-03-25T16:54:45.487Z,48.20
2018-03-25T16:59:48.070Z,48.80
2018-03-25T17:04:50.636Z,49.70
2018-03-25T17:09:53.230Z,49.50
2018-03-25T17:14:55.770Z,48.90
2018-03-25T17:19:58.338Z,49.20
2018-03-25T17:25:00.892Z,49.70
2018-03-25T17:30:03.442Z,50.30
2018-03-25T17:35:06.615Z,50.70
2018-03-25T17:40:09.946Z,51.30
2018-03-25T17:45:12.510Z,51.30
2018-03-25T17:50:15.098Z,51.90
2018-03-25T17:55:17.672Z,52.20
2018-03-25T18:00:20.234Z,52.70
2018-03-25T18:05:22.795Z,52.90
2018-03-25T18:10:25.379Z,53.00
2018-03-25T18:15:27.920Z,53.20
2018-03-25T18:20:31.245Z,53.50
2018-03-25T18:25:33.814Z,53.50
2018-03-25T18:30:36.373Z,53.70
2018-03-25T18:35:38.944Z,54.00
2018-03-25T18:40:41.519Z,54.10
2018-03-25T18:45:44.084Z,54.20
2018-03-25T18:50:46.629Z,55.40
2018-03-25T18:55:49.178Z,55.40
2018-03-25T19:00:51.720Z,55.60
2018-03-25T19:05:54.277Z,56.00
2018-03-25T19:10:56.828Z,56.10
2018-03-25T19:15:59.370Z,56.30
2018-03-25T19:21:01.924Z,56.50
2018-03-25T19:26:04.463Z,56.80
2018-03-25T19:31:07.009Z,57.10
2018-03-25T19:36:09.554Z,57.30
2018-03-25T19:41:12.091Z,57.70
2018-03-25T19:46:14.638Z,58.00
2018-03-25T19:51:17.178Z,58.30
2018-03-25T19:56:19.723Z,58.50
2018-03-25T20:01:22.262Z,58.70
2018-03-25T20:06:24.903Z,59.10
2018-03-25T20:11:28.216Z,59.50
2018-03-25T20:16:30.747Z,59.40
2018-03-25T20:21:33.281Z,60.10
2018-03-25T20:26:35.831Z,60.20
2018-03-25T20:31:38.366Z,61.00
2018-03-25T20:36:40.907Z,60.40
2018-03-25T20:41:43.451Z,60.90
2018-03-25T20:46:45.994Z,60.90
2018-03-25T20:51:48.545Z,61.20
2018-03-25T20:56:51.080Z,61.60
2018-03-25T21:01:53.618Z,61.90
2018-03-25T21:06:56.167Z,62.10
2018-03-25T21:11:58.711Z,62.20
2018-03-25T21:17:01.251Z,62.10
2018-03-25T21:22:03.806Z,62.30
2018-03-25T21:27:06.422Z,62.50
2018-03-25T21:32:08.955Z,62.50
2018-03-25T21:37:11.486Z,62.60
2018-03-25T21:42:14.034Z,62.80
2018-03-25T21:47:16.562Z,63.00
2018-03-25T21:52:19.097Z,62.90
2018-03-25T21:57:21.687Z,63.30
2018-03-25T22:02:24.214Z,63.70
2018-03-25T22:07:26.745Z,63.50
2018-03-25T22:12:29.295Z,63.90
2018-03-25T22:17:31.829Z,63.90
2018-03-25T22:22:34.358Z,64.20
2018-03-25T22:27:36.903Z,64.70
2018-03-25T22:32:39.442Z,64.70
2018-03-25T22:37:41.986Z,65.00
2018-03-25T22:42:44.538Z,65.00
2018-03-25T22:47:47.078Z,65.00
2018-03-25T22:52:49.609Z,65.10
2018-03-25T22:57:52.142Z,65.40
2018-03-25T23:02:54.678Z,65.40
2018-03-25T23:07:57.212Z,65.30
2018-03-25T23:12:59.756Z,65.90
2018-03-25T23:18:02.291Z,65.70
2018-03-25T23:23:04.821Z,66.00
2018-03-25T23:28:07.374Z,66.00
2018-03-25T23:33:09.898Z,66.00
2018-03-25T23:38:12.425Z,65.90
2018-03-25T23:43:14.953Z,66.40
2018-03-25T23:48:17.491Z,66.60
2018-03-25T23:53:20.026Z,66.70
2018-03-25T23:58:22.561Z,66.60
